createdAt,value
2023-05-16T00:02:48.631Z,11.50
2023-05-16T00:12:53.880Z,11.47
2023-05-16T00:22:56.396Z,11.41
2023-05-16T00:32:58.434Z,11.37
2023-05-16T00:43:05.378Z,11.39
2023-05-16T00:53:07.135Z,11.61
2023-05-16T01:03:12.204Z,11.66
2023-05-16T01:13:58.492Z,11.60
2023-05-16T01:24:16.821Z,11.46
2023-05-16T01:34:18.989Z,11.67
2023-05-16T01:44:36.487Z,11.60
2023-05-16T01:54:41.836Z,11.47
2023-05-16T02:04:44.796Z,11.29
2023-05-16T02:14:46.697Z,11.16
2023-05-16T02:24:48.656Z,11.25
2023-05-16T02:34:50.698Z,10.96
2023-05-16T02:44:53.654Z,10.77
2023-05-16T02:55:09.814Z,10.64
2023-05-16T03:05:21.573Z,10.56
2023-05-16T03:15:23.460Z,10.61
2023-05-16T03:25:25.824Z,10.84
2023-05-16T03:35:33.484Z,10.81
2023-05-16T03:45:37.426Z,11.34
2023-05-16T03:55:39.291Z,11.90
2023-05-16T04:05:52.668Z,12.40
2023-05-16T04:15:55.658Z,12.80
2023-05-16T04:25:57.534Z,13.21
2023-05-16T04:36:00.511Z,13.53
2023-05-16T04:46:10.835Z,13.77
2023-05-16T04:56:12.800Z,14.11
2023-05-16T05:06:16.741Z,14.48
2023-05-16T05:16:19.675Z,14.55
2023-05-16T05:26:23.680Z,14.97
2023-05-16T05:36:31.361Z,15.29
2023-05-16T05:46:34.097Z,14.23
2023-05-16T05:56:36.534Z,13.63
2023-05-16T06:06:38.647Z,13.46
2023-05-16T06:16:40.830Z,13.56
2023-05-16T06:26:44.690Z,13.48
2023-05-16T06:36:46.661Z,13.60
2023-05-16T06:46:54.883Z,13.48
2023-05-16T06:56:59.879Z,13.35
2023-05-16T07:07:02.875Z,13.43
2023-05-16T07:17:05.171Z,13.52
2023-05-16T07:27:08.408Z,14.29
2023-05-16T07:37:13.185Z,15.88
2023-05-16T07:47:15.136Z,15.84
2023-05-16T07:57:19.337Z,14.96
2023-05-16T08:07:22.340Z,14.84
2023-05-16T08:17:29.364Z,14.59
2023-05-16T08:27:57.394Z,15.29
2023-05-16T08:37:59.376Z,14.91
2023-05-16T08:48:06.471Z,15.76
2023-05-16T08:58:11.362Z,15.21
2023-05-16T09:08:51.254Z,15.21
2023-05-16T09:19:02.131Z,16.91
2023-05-16T09:29:14.343Z,16.39
2023-05-16T09:39:16.410Z,15.90
2023-05-16T09:49:18.614Z,15.77
2023-05-16T09:59:24.974Z,16.10
2023-05-16T10:09:44.345Z,16.44
2023-05-16T10:19:56.234Z,16.16
2023-05-16T10:29:58.981Z,16.14
2023-05-16T10:40:02.443Z,15.91
2023-05-16T10:50:04.705Z,16.39
2023-05-16T11:00:08.637Z,16.37
2023-05-16T11:10:17.147Z,16.35
2023-05-16T11:20:36.340Z,15.77
2023-05-16T11:30:50.545Z,16.69
2023-05-16T11:40:52.507Z,17.08
2023-05-16T11:50:55.391Z,17.69
2023-05-16T12:01:05.272Z,18.15
2023-05-16T12:11:07.612Z,17.39
2023-05-16T12:21:11.704Z,17.01
2023-05-16T12:31:31.670Z,16.89
2023-05-16T12:41:41.871Z,17.27
2023-05-16T12:51:50.534Z,16.93
2023-05-16T13:01:52.600Z,16.69
2023-05-16T13:11:56.774Z,17.62
2023-05-16T13:21:58.741Z,17.81
2023-05-16T13:32:07.868Z,17.69
2023-05-16T13:42:11.314Z,17.91
2023-05-16T13:52:37.840Z,18.37
2023-05-16T14:02:41.414Z,18.26
2023-05-16T14:13:08.917Z,18.41
2023-05-16T14:23:10.986Z,18.18
2023-05-16T14:33:13.106Z,18.46
2023-05-16T14:43:17.683Z,18.06
2023-05-16T14:53:21.825Z,18.24
2023-05-16T15:03:53.620Z,18.15
2023-05-16T15:14:16.968Z,17.82
2023-05-16T15:24:19.116Z,17.82
2023-05-16T15:34:21.304Z,17.77
2023-05-16T15:44:23.244Z,17.90
2023-05-16T15:54:25.205Z,17.80
2023-05-16T16:04:33.207Z,17.74
2023-05-16T16:14:35.412Z,17.73
2023-05-16T16:24:37.540Z,17.47
2023-05-16T16:34:39.810Z,17.45
2023-05-16T16:44:41.771Z,17.29
2023-05-16T16:54:43.907Z,17.34
2023-05-16T17:04:45.970Z,17.42
2023-05-16T17:15:10.107Z,17.11
2023-05-16T17:25:12.183Z,16.90
2023-05-16T17:35:15.437Z,16.60
2023-05-16T17:45:18.330Z,16.57
2023-05-16T17:55:29.576Z,16.32
2023-05-16T18:05:34.193Z,16.14
2023-05-16T18:15:39.543Z,15.96
2023-05-16T18:25:48.040Z,15.81
2023-05-16T18:35:50.045Z,15.50
2023-05-16T18:46:06.174Z,15.17
2023-05-16T18:56:22.859Z,15.06
2023-05-16T19:06:25.677Z,15.02
2023-05-16T19:16:32.083Z,14.82
2023-05-16T19:26:34.550Z,14.81
2023-05-16T19:36:42.901Z,14.38
2023-05-16T19:46:49.428Z,14.40
2023-05-16T19:56:51.391Z,14.32
2023-05-16T20:06:53.548Z,13.98
2023-05-16T20:16:58.802Z,13.90
2023-05-16T20:27:01.712Z,13.93
2023-05-16T20:37:09.653Z,13.99
2023-05-16T20:47:13.754Z,14.11
2023-05-16T20:57:23.567Z,13.95
2023-05-16T21:17:48.047Z,13.66
2023-05-16T21:28:06.013Z,13.85
2023-05-16T21:38:07.962Z,13.88
2023-05-16T21:48:10.112Z,13.80
2023-05-16T21:58:12.214Z,13.71
2023-05-16T22:08:15.323Z,13.42
2023-05-16T22:18:17.444Z,13.16
2023-05-16T22:28:20.474Z,13.29
2023-05-16T22:38:22.583Z,13.35
2023-05-16T22:48:24.688Z,13.35
2023-05-16T22:58:26.774Z,13.32
2023-05-16T23:08:28.810Z,13.27
2023-05-16T23:18:30.884Z,13.24
2023-05-16T23:28:32.973Z,13.07
2023-05-16T23:38:34.951Z,13.00
2023-05-16T23:48:37.048Z,13.14
2023-05-16T23:58:39.025Z,13.13
